Entebbe, Uganda
Current Conditions -  °F | °C
As of 10:00 PM on Wednesday 26 Nov 2014 (Local Time) from HUEN Reporting Station
Few Clouds Few Clouds  
Wind Chill: 70°   Ceiling: Unl
Heat Index: 70°   Visibility: 6mi
Dew Point: 66°   Wind: 7mph
Humidity: 88%   Direction: 350°N
Pressure: 30.03"   Gusts: NA
Location:  0.06°N, 32.46°E
Report Text: HUEN 261900Z 35006KT 9999 LL/N FEW018 FEW020CB 21/19 Q1017
Loading
Personal Weather Stations






























Interactive Weather Map New forecast layout! Learn more

10-Day Weather Forecast

Advertisements
Track Severe Weather on mobile